KMCOMKJP

Guest
Details From KMCO - Orlando Intl
To MKJP - Norman Manley Intl
Flight Number -
Tags generated
Created
Modified
Stats Distance 685 nm / 1,269 km
Max Altitude 35,000 ft / 10,668 m
Waypoints 10
Social Downloads 0
Likes 0
Share VATSIM

Download

Looking for another format? Having issues loading an existing format? Contact us
Advertisement - Login to hide

Notes

Basic altitude profile: - Ascent Rate: 2500ft/min - Ascent Speed: 250kts - Cruise Altitude: 30000ft - Cruise Speed: 420kts - Descent Rate: 1500ft/min - Descent Speed: 250kts Options: - Use NATs: yes - Use PACOTS: yes - Use low airways: yes - Use high airways: yes

Route

KMCO LLNCH J113 VKZ G430 EONNS A509 URSUS UA301 TOTON MKJP

ID Type Via Altitude Latitude Longitude Leg Dist Tot Dist Heading (true) Name
O KMCO APT - 0 ft / 0 m 28.42920˚ -81.30678˚ - 0 nm - Orlando Intl
LLNCH FIX - 23,200 ft / 7,071 m 27.43546˚ -80.69568˚ 67 nm 67 nm 151° / 152° -
ARKES FIX J113 (AWY-HI) 35,000 ft / 10,668 m 26.57715˚ -80.41767˚ 53 nm 121 nm 164° / 164° -
VKZ DME J113 (AWY-HI) 35,000 ft / 10,668 m 25.75190˚ -80.15444˚ 51 nm 173 nm 164° / 164° VIRGINIA KEY VOR-DME
EONNS FIX G430 (AWY-HI) 35,000 ft / 10,668 m 25.29672˚ -79.98684˚ 28 nm 201 nm 162° / 162° -
ELLEE FIX A509 (AWY-HI) 35,000 ft / 10,668 m 24.88061˚ -79.69002˚ 29 nm 231 nm 147° / 147° -
URSUS FIX A509 (AWY-HI) 35,000 ft / 10,668 m 24.00005˚ -79.06980˚ 62 nm 294 nm 147° / 147° -
UCA DME UA301 (AWY-HI) 35,000 ft / 10,668 m 22.01506˚ -78.81582˚ 120 nm 414 nm 173° / 173° CIEGO DE AVILA VOR-DME
TOTON FIX UA301 (AWY-HI) 23,500 ft / 7,163 m 19.54056˚ -77.56722˚ 164 nm 578 nm 155° / 155° -
O MKJP APT - 0 ft / 0 m 17.93567˚ -76.78756˚ 106 nm 684 nm 155° / 155° Norman Manley Intl

Altitude Profile

Advertisement - Login to hide

Weather


0- 5 10 15 20 25 30 35+ Temperature / ° C

Clouds and Precipitation
Forecast for 2018-05-27 12:00 UTC. Updated 5 hours ago

Ground ~20,000 ft ~40,000 ft Winds

KMCO

Details ICAO KMCO (MCO)
Name Orlando Intl
Region United States
Timezone America/New_York (UTC-4.0)
Stats Elevation 96 ft / 29 m (AMSL)
Location 28.429199° -81.306780°
Runways 4
Magnetic Variation 6.443° W

METAR

KMCO 271514Z 13011KT 4SM R35L/6000VP6000FT -RA BR SCT018 BKN026 OVC055 24/24 A2981 RMK AO2 PK WND 15026/1454 RAB1454 P0029 T02390239

Decode

TAF

TAF AMD KMCO 271455Z 2715/2818 13015G25KT P6SM -SHRA SCT015 BKN035 OVC070 TEMPO 2715/2718 3SM SHRA BKN015 FM272300 15012KT P6SM VCSH SCT025 BKN060 FM280400 17010KT P6SM SCT020 BKN120 FM281400 17015G20KT P6SM VCSH SCT015 SCT025 BKN040

Decode

Departure Runways

ID Width Length Bearing (true) Bearing (mag) Surface Threshold Offset Overrun Length
17L 150 ft / 46 m 9,033 ft / 2,753 m 179.48° 185.92° Asphalt 0 ft / 0 m 400 ft / 122 m
17R 150 ft / 46 m 10,035 ft / 3,059 m 179.47° 185.91° Concrete 0 ft / 0 m 400 ft / 122 m
18L 200 ft / 61 m 12,048 ft / 3,672 m 179.47° 185.91° Asphalt 0 ft / 0 m 400 ft / 122 m
18R 200 ft / 61 m 12,047 ft / 3,672 m 179.46° 185.90° Concrete 0 ft / 0 m 900 ft / 274 m
35L 150 ft / 46 m 10,035 ft / 3,059 m 359.47° 5.91° Concrete 0 ft / 0 m 400 ft / 122 m
35R 150 ft / 46 m 9,033 ft / 2,753 m 359.49° 5.93° Asphalt 0 ft / 0 m 400 ft / 122 m
36L 200 ft / 61 m 12,047 ft / 3,672 m 359.46° 5.90° Concrete 0 ft / 0 m 700 ft / 213 m
36R 200 ft / 61 m 12,048 ft / 3,672 m 359.47° 5.91° Asphalt 0 ft / 0 m 400 ft / 122 m

MKJP

Details ICAO MKJP (KIN)
Name Norman Manley Intl
Region Jamaica
Timezone Unknown (UTC+0.0)
Stats Elevation 10 ft / 3 m (AMSL)
Location 17.935665° -76.787560°
Runways 1
Magnetic Variation 7.591° W

METAR

MKJP 271500Z 13019KT 9999 SCT020 BKN060 30/25 Q1013

Decode

TAF

TAF MKJP 271115Z 2712/2812 13020KT 9999 SCT022= TAF MKJS 271115Z 2712/2812 18005KT 9999 SCT022 TEMPO 2713/2718 8000 TSRA SCT018 BKN020CB

Decode

Destination Runways

ID Width Length Bearing (true) Bearing (mag) Surface Threshold Offset Overrun Length
12 150 ft / 46 m 8,912 ft / 2,717 m 112.09° 119.68° Asphalt 0 ft / 0 m 0 ft / 0 m
30 150 ft / 46 m 8,912 ft / 2,717 m 292.10° 299.69° Asphalt 0 ft / 0 m 0 ft / 0 m

Approach Navaids

Runway Type Ident Frequency Range Bearing (true) Bearing (mag) Slope Elevation
12 Localiser IMLY 109.10 MHz 18 nm / 33 km 115.09° 122.68° - 10 ft / 3 m (AMSL)
12 Glidescope IMLY 109.10 MHz 10 nm / 19 km 115.09° 122.68° 3.00° 8 ft / 2 m (AMSL)

Popular Alternatives